sensor_id;sensor_type;location;lat;lon;timestamp;P1;durP1;ratioP1;P2;durP2;ratioP2
20476;SDS011;10397;50.948;11.092;2022-08-05T00:01:23;3.80;;;1.27;;
20476;SDS011;10397;50.948;11.092;2022-08-05T00:03:54;6.35;;;1.40;;
20476;SDS011;10397;50.948;11.092;2022-08-05T00:06:26;6.42;;;1.55;;
20476;SDS011;10397;50.948;11.092;2022-08-05T00:08:57;4.00;;;1.25;;
20476;SDS011;10397;50.948;11.092;2022-08-05T00:11:28;7.92;;;1.87;;
20476;SDS011;10397;50.948;11.092;2022-08-05T00:14:00;10.78;;;1.52;;
20476;SDS011;10397;50.948;11.092;2022-08-05T00:16:31;5.45;;;1.40;;
20476;SDS011;10397;50.948;11.092;2022-08-05T00:19:03;9.53;;;1.75;;
20476;SDS011;10397;50.948;11.092;2022-08-05T00:21:34;4.95;;;1.47;;
20476;SDS011;10397;50.948;11.092;2022-08-05T00:24:06;2.90;;;1.32;;
20476;SDS011;10397;50.948;11.092;2022-08-05T00:26:37;1.87;;;1.17;;
20476;SDS011;10397;50.948;11.092;2022-08-05T00:29:08;9.20;;;1.60;;
20476;SDS011;10397;50.948;11.092;2022-08-05T00:31:40;6.25;;;1.35;;
20476;SDS011;10397;50.948;11.092;2022-08-05T00:34:11;7.03;;;1.40;;
20476;SDS011;10397;50.948;11.092;2022-08-05T00:36:43;3.40;;;1.30;;
20476;SDS011;10397;50.948;11.092;2022-08-05T00:39:14;4.20;;;1.40;;
20476;SDS011;10397;50.948;11.092;2022-08-05T00:41:46;3.45;;;1.32;;
20476;SDS011;10397;50.948;11.092;2022-08-05T00:44:17;4.58;;;1.37;;
20476;SDS011;10397;50.948;11.092;2022-08-05T00:46:48;7.67;;;1.20;;
20476;SDS011;10397;50.948;11.092;2022-08-05T00:49:20;5.30;;;1.55;;
20476;SDS011;10397;50.948;11.092;2022-08-05T00:51:51;5.67;;;1.90;;
20476;SDS011;10397;50.948;11.092;2022-08-05T00:54:23;4.70;;;1.37;;
20476;SDS011;10397;50.948;11.092;2022-08-05T00:56:54;3.15;;;1.37;;
20476;SDS011;10397;50.948;11.092;2022-08-05T00:59:26;5.80;;;1.77;;
20476;SDS011;10397;50.948;11.092;2022-08-05T01:01:57;3.47;;;1.50;;
20476;SDS011;10397;50.948;11.092;2022-08-05T01:04:29;10.48;;;1.82;;
20476;SDS011;10397;50.948;11.092;2022-08-05T01:07:01;10.50;;;1.77;;
20476;SDS011;10397;50.948;11.092;2022-08-05T01:09:32;3.27;;;1.40;;
20476;SDS011;10397;50.948;11.092;2022-08-05T01:12:10;4.78;;;1.85;;
20476;SDS011;10397;50.948;11.092;2022-08-05T01:14:46;6.10;;;1.50;;
20476;SDS011;10397;50.948;11.092;2022-08-05T01:17:19;2.80;;;1.40;;
20476;SDS011;10397;50.948;11.092;2022-08-05T01:19:49;2.70;;;1.75;;
20476;SDS011;10397;50.948;11.092;2022-08-05T01:22:37;3.35;;;1.32;;
20476;SDS011;10397;50.948;11.092;2022-08-05T01:31:16;6.80;;;1.90;;
20476;SDS011;10397;50.948;11.092;2022-08-05T01:33:50;2.77;;;1.43;;
20476;SDS011;10397;50.948;11.092;2022-08-05T01:36:19;5.13;;;1.50;;
20476;SDS011;10397;50.948;11.092;2022-08-05T01:38:50;3.27;;;1.50;;
20476;SDS011;10397;50.948;11.092;2022-08-05T01:41:22;4.12;;;1.35;;
20476;SDS011;10397;50.948;11.092;2022-08-05T01:43:53;2.70;;;1.40;;
20476;SDS011;10397;50.948;11.092;2022-08-05T01:46:24;4.75;;;1.40;;
20476;SDS011;10397;50.948;11.092;2022-08-05T01:48:56;2.70;;;1.42;;
20476;SDS011;10397;50.948;11.092;2022-08-05T01:51:26;2.03;;;1.37;;
20476;SDS011;10397;50.948;11.092;2022-08-05T01:53:57;4.60;;;1.27;;
20476;SDS011;10397;50.948;11.092;2022-08-05T01:56:29;5.28;;;1.55;;
20476;SDS011;10397;50.948;11.092;2022-08-05T01:59:01;4.40;;;1.55;;
20476;SDS011;10397;50.948;11.092;2022-08-05T02:01:31;3.52;;;1.15;;
20476;SDS011;10397;50.948;11.092;2022-08-05T02:04:02;3.87;;;1.30;;
20476;SDS011;10397;50.948;11.092;2022-08-05T02:06:33;1.87;;;1.20;;
20476;SDS011;10397;50.948;11.092;2022-08-05T02:09:04;5.37;;;1.22;;
20476;SDS011;10397;50.948;11.092;2022-08-05T02:11:50;4.23;;;1.30;;
20476;SDS011;10397;50.948;11.092;2022-08-05T02:14:23;8.20;;;1.60;;
20476;SDS011;10397;50.948;11.092;2022-08-05T02:16:52;3.58;;;1.55;;
20476;SDS011;10397;50.948;11.092;2022-08-05T02:19:35;5.13;;;1.80;;
20476;SDS011;10397;50.948;11.092;2022-08-05T02:22:22;2.80;;;1.33;;
20476;SDS011;10397;50.948;11.092;2022-08-05T02:24:52;6.70;;;1.80;;
20476;SDS011;10397;50.948;11.092;2022-08-05T02:27:22;3.65;;;1.17;;
20476;SDS011;10397;50.948;11.092;2022-08-05T02:29:53;3.62;;;1.47;;
20476;SDS011;10397;50.948;11.092;2022-08-05T02:32:25;5.70;;;1.45;;
20476;SDS011;10397;50.948;11.092;2022-08-05T02:34:57;4.50;;;1.25;;
20476;SDS011;10397;50.948;11.092;2022-08-05T02:37:27;3.70;;;1.17;;
20476;SDS011;10397;50.948;11.092;2022-08-05T02:39:59;4.95;;;1.20;;
20476;SDS011;10397;50.948;11.092;2022-08-05T02:42:30;2.30;;;1.40;;
20476;SDS011;10397;50.948;11.092;2022-08-05T02:45:01;3.65;;;1.40;;
20476;SDS011;10397;50.948;11.092;2022-08-05T02:47:32;3.62;;;1.60;;
20476;SDS011;10397;50.948;11.092;2022-08-05T02:50:04;3.55;;;1.47;;
20476;SDS011;10397;50.948;11.092;2022-08-05T02:52:34;4.22;;;1.75;;
20476;SDS011;10397;50.948;11.092;2022-08-05T02:55:06;3.27;;;1.32;;
20476;SDS011;10397;50.948;11.092;2022-08-05T02:57:37;3.97;;;1.23;;
20476;SDS011;10397;50.948;11.092;2022-08-05T03:00:07;6.72;;;1.65;;
20476;SDS011;10397;50.948;11.092;2022-08-05T03:02:38;4.40;;;1.50;;
20476;SDS011;10397;50.948;11.092;2022-08-05T03:05:10;5.65;;;1.50;;
20476;SDS011;10397;50.948;11.092;2022-08-05T03:07:40;1.55;;;1.25;;
20476;SDS011;10397;50.948;11.092;2022-08-05T03:10:11;2.03;;;1.20;;
20476;SDS011;10397;50.948;11.092;2022-08-05T03:12:42;2.95;;;1.40;;
20476;SDS011;10397;50.948;11.092;2022-08-05T03:15:13;4.62;;;1.00;;
20476;SDS011;10397;50.948;11.092;2022-08-05T03:17:45;3.40;;;1.55;;
20476;SDS011;10397;50.948;11.092;2022-08-05T03:20:17;5.85;;;1.72;;
20476;SDS011;10397;50.948;11.092;2022-08-05T03:22:49;3.80;;;1.40;;
20476;SDS011;10397;50.948;11.092;2022-08-05T03:25:20;5.83;;;1.80;;
20476;SDS011;10397;50.948;11.092;2022-08-05T03:27:51;9.98;;;1.32;;
20476;SDS011;10397;50.948;11.092;2022-08-05T03:30:22;3.50;;;1.67;;
20476;SDS011;10397;50.948;11.092;2022-08-05T03:32:53;7.30;;;1.70;;
20476;SDS011;10397;50.948;11.092;2022-08-05T03:35:24;5.87;;;2.15;;
20476;SDS011;10397;50.948;11.092;2022-08-05T03:37:56;5.15;;;1.60;;
20476;SDS011;10397;50.948;11.092;2022-08-05T03:40:26;7.97;;;2.27;;
20476;SDS011;10397;50.948;11.092;2022-08-05T03:42:57;5.03;;;2.08;;
20476;SDS011;10397;50.948;11.092;2022-08-05T03:45:28;3.65;;;1.32;;
20476;SDS011;10397;50.948;11.092;2022-08-05T03:48:00;6.15;;;1.80;;
20476;SDS011;10397;50.948;11.092;2022-08-05T03:50:42;12.37;;;2.20;;
20476;SDS011;10397;50.948;11.092;2022-08-05T03:53:27;15.80;;;2.13;;
20476;SDS011;10397;50.948;11.092;2022-08-05T03:56:06;7.93;;;1.57;;
20476;SDS011;10397;50.948;11.092;2022-08-05T03:58:44;9.37;;;2.10;;
20476;SDS011;10397;50.948;11.092;2022-08-05T04:01:15;3.70;;;1.22;;
20476;SDS011;10397;50.948;11.092;2022-08-05T04:03:45;8.83;;;1.53;;
20476;SDS011;10397;50.948;11.092;2022-08-05T04:06:17;7.05;;;1.70;;
20476;SDS011;10397;50.948;11.092;2022-08-05T04:08:48;4.67;;;1.70;;
20476;SDS011;10397;50.948;11.092;2022-08-05T04:11:19;3.83;;;1.77;;
20476;SDS011;10397;50.948;11.092;2022-08-05T04:13:51;5.05;;;2.30;;
20476;SDS011;10397;50.948;11.092;2022-08-05T04:16:22;3.33;;;1.82;;
20476;SDS011;10397;50.948;11.092;2022-08-05T04:18:54;5.10;;;2.10;;
20476;SDS011;10397;50.948;11.092;2022-08-05T04:21:26;2.17;;;1.70;;
20476;SDS011;10397;50.948;11.092;2022-08-05T04:23:56;5.83;;;2.00;;
20476;SDS011;10397;50.948;11.092;2022-08-05T04:26:27;3.75;;;1.70;;
20476;SDS011;10397;50.948;11.092;2022-08-05T04:28:59;2.90;;;1.60;;
20476;SDS011;10397;50.948;11.092;2022-08-05T04:31:30;6.72;;;2.00;;
20476;SDS011;10397;50.948;11.092;2022-08-05T04:34:01;7.58;;;2.50;;
20476;SDS011;10397;50.948;11.092;2022-08-05T04:36:33;4.12;;;2.20;;
20476;SDS011;10397;50.948;11.092;2022-08-05T04:39:04;3.27;;;2.30;;
20476;SDS011;10397;50.948;11.092;2022-08-05T04:41:36;4.08;;;1.72;;
20476;SDS011;10397;50.948;11.092;2022-08-05T04:44:08;3.27;;;1.75;;
20476;SDS011;10397;50.948;11.092;2022-08-05T04:46:39;4.58;;;2.12;;
20476;SDS011;10397;50.948;11.092;2022-08-05T04:49:11;4.20;;;2.45;;
20476;SDS011;10397;50.948;11.092;2022-08-05T04:51:42;5.75;;;1.85;;
20476;SDS011;10397;50.948;11.092;2022-08-05T04:54:13;3.77;;;2.02;;
20476;SDS011;10397;50.948;11.092;2022-08-05T04:56:44;6.05;;;3.20;;
20476;SDS011;10397;50.948;11.092;2022-08-05T04:59:16;4.97;;;2.05;;
20476;SDS011;10397;50.948;11.092;2022-08-05T05:01:48;4.10;;;2.25;;
20476;SDS011;10397;50.948;11.092;2022-08-05T05:04:19;6.15;;;2.55;;
20476;SDS011;10397;50.948;11.092;2022-08-05T05:06:51;6.30;;;2.40;;
20476;SDS011;10397;50.948;11.092;2022-08-05T05:09:22;7.37;;;2.90;;
20476;SDS011;10397;50.948;11.092;2022-08-05T05:11:54;6.30;;;2.15;;
20476;SDS011;10397;50.948;11.092;2022-08-05T05:14:25;3.45;;;2.35;;
20476;SDS011;10397;50.948;11.092;2022-08-05T05:16:56;5.10;;;2.22;;
20476;SDS011;10397;50.948;11.092;2022-08-05T05:19:28;7.25;;;2.70;;
20476;SDS011;10397;50.948;11.092;2022-08-05T05:21:59;4.83;;;2.00;;
20476;SDS011;10397;50.948;11.092;2022-08-05T05:24:31;6.53;;;2.17;;
20476;SDS011;10397;50.948;11.092;2022-08-05T05:27:02;6.22;;;2.42;;
20476;SDS011;10397;50.948;11.092;2022-08-05T05:29:33;2.85;;;2.22;;
20476;SDS011;10397;50.948;11.092;2022-08-05T05:32:05;7.58;;;1.77;;
20476;SDS011;10397;50.948;11.092;2022-08-05T05:34:36;6.00;;;1.60;;
20476;SDS011;10397;50.948;11.092;2022-08-05T05:37:08;3.70;;;1.87;;
20476;SDS011;10397;50.948;11.092;2022-08-05T05:39:39;4.53;;;1.55;;
20476;SDS011;10397;50.948;11.092;2022-08-05T05:42:10;3.20;;;2.10;;
20476;SDS011;10397;50.948;11.092;2022-08-05T05:44:41;4.67;;;1.60;;
20476;SDS011;10397;50.948;11.092;2022-08-05T05:47:13;3.62;;;1.72;;
20476;SDS011;10397;50.948;11.092;2022-08-05T05:49:45;4.12;;;1.80;;
20476;SDS011;10397;50.948;11.092;2022-08-05T05:52:16;5.73;;;2.23;;
20476;SDS011;10397;50.948;11.092;2022-08-05T05:54:47;3.10;;;1.90;;
20476;SDS011;10397;50.948;11.092;2022-08-05T05:57:19;4.50;;;2.17;;
20476;SDS011;10397;50.948;11.092;2022-08-05T05:59:50;5.17;;;2.07;;
20476;SDS011;10397;50.948;11.092;2022-08-05T06:02:21;3.70;;;2.15;;
20476;SDS011;10397;50.948;11.092;2022-08-05T06:04:53;2.52;;;2.22;;
20476;SDS011;10397;50.948;11.092;2022-08-05T06:07:25;11.20;;;2.17;;
20476;SDS011;10397;50.948;11.092;2022-08-05T06:09:56;3.77;;;2.17;;
20476;SDS011;10397;50.948;11.092;2022-08-05T06:12:28;2.72;;;1.55;;
20476;SDS011;10397;50.948;11.092;2022-08-05T06:14:59;5.08;;;2.05;;
20476;SDS011;10397;50.948;11.092;2022-08-05T06:17:29;5.90;;;2.63;;
20476;SDS011;10397;50.948;11.092;2022-08-05T06:20:01;3.08;;;1.65;;
20476;SDS011;10397;50.948;11.092;2022-08-05T06:22:32;8.23;;;2.03;;
20476;SDS011;10397;50.948;11.092;2022-08-05T06:25:03;2.95;;;2.05;;
20476;SDS011;10397;50.948;11.092;2022-08-05T06:27:33;4.33;;;1.73;;
20476;SDS011;10397;50.948;11.092;2022-08-05T06:30:04;7.45;;;2.33;;
20476;SDS011;10397;50.948;11.092;2022-08-05T06:32:35;5.42;;;2.30;;
20476;SDS011;10397;50.948;11.092;2022-08-05T06:35:07;4.37;;;1.65;;
20476;SDS011;10397;50.948;11.092;2022-08-05T06:37:37;4.80;;;2.17;;
20476;SDS011;10397;50.948;11.092;2022-08-05T06:40:09;3.37;;;2.12;;
20476;SDS011;10397;50.948;11.092;2022-08-05T06:42:40;2.92;;;1.82;;
20476;SDS011;10397;50.948;11.092;2022-08-05T06:45:11;7.55;;;2.40;;
20476;SDS011;10397;50.948;11.092;2022-08-05T06:47:43;3.02;;;1.70;;
20476;SDS011;10397;50.948;11.092;2022-08-05T06:50:15;8.23;;;2.20;;
20476;SDS011;10397;50.948;11.092;2022-08-05T06:52:45;4.30;;;1.90;;
20476;SDS011;10397;50.948;11.092;2022-08-05T06:55:17;2.42;;;1.30;;
20476;SDS011;10397;50.948;11.092;2022-08-05T06:57:48;4.55;;;1.90;;
20476;SDS011;10397;50.948;11.092;2022-08-05T07:00:20;3.35;;;1.92;;
20476;SDS011;10397;50.948;11.092;2022-08-05T07:02:50;2.63;;;1.50;;
20476;SDS011;10397;50.948;11.092;2022-08-05T07:05:22;3.22;;;1.60;;
20476;SDS011;10397;50.948;11.092;2022-08-05T07:07:52;4.77;;;1.50;;
20476;SDS011;10397;50.948;11.092;2022-08-05T07:10:24;4.55;;;1.40;;
20476;SDS011;10397;50.948;11.092;2022-08-05T07:12:56;4.97;;;1.57;;
20476;SDS011;10397;50.948;11.092;2022-08-05T07:15:45;3.00;;;1.37;;
20476;SDS011;10397;50.948;11.092;2022-08-05T07:18:35;5.47;;;1.87;;
20476;SDS011;10397;50.948;11.092;2022-08-05T07:21:06;5.00;;;1.33;;
20476;SDS011;10397;50.948;11.092;2022-08-05T07:23:38;6.70;;;1.50;;
20476;SDS011;10397;50.948;11.092;2022-08-05T07:26:09;2.80;;;1.40;;
20476;SDS011;10397;50.948;11.092;2022-08-05T07:28:41;5.08;;;1.30;;
20476;SDS011;10397;50.948;11.092;2022-08-05T07:31:12;2.60;;;1.72;;
20476;SDS011;10397;50.948;11.092;2022-08-05T07:33:44;2.45;;;1.40;;
20476;SDS011;10397;50.948;11.092;2022-08-05T07:36:15;3.05;;;1.87;;
20476;SDS011;10397;50.948;11.092;2022-08-05T07:38:47;7.33;;;1.60;;
20476;SDS011;10397;50.948;11.092;2022-08-05T07:41:18;6.13;;;1.63;;
20476;SDS011;10397;50.948;11.092;2022-08-05T07:43:48;9.90;;;1.70;;
20476;SDS011;10397;50.948;11.092;2022-08-05T07:46:19;4.75;;;1.40;;
20476;SDS011;10397;50.948;11.092;2022-08-05T07:48:51;5.25;;;1.45;;
20476;SDS011;10397;50.948;11.092;2022-08-05T07:51:21;4.23;;;1.47;;
20476;SDS011;10397;50.948;11.092;2022-08-05T07:53:52;4.65;;;2.20;;
20476;SDS011;10397;50.948;11.092;2022-08-05T07:56:24;4.08;;;1.60;;
20476;SDS011;10397;50.948;11.092;2022-08-05T07:58:55;4.95;;;1.90;;
20476;SDS011;10397;50.948;11.092;2022-08-05T08:01:27;6.28;;;2.50;;
20476;SDS011;10397;50.948;11.092;2022-08-05T08:03:58;2.42;;;2.02;;
20476;SDS011;10397;50.948;11.092;2022-08-05T08:06:30;6.30;;;1.75;;
20476;SDS011;10397;50.948;11.092;2022-08-05T08:09:02;3.80;;;2.00;;
20476;SDS011;10397;50.948;11.092;2022-08-05T08:11:33;5.03;;;2.42;;
20476;SDS011;10397;50.948;11.092;2022-08-05T08:14:04;3.52;;;1.62;;
20476;SDS011;10397;50.948;11.092;2022-08-05T08:16:36;2.80;;;1.30;;
20476;SDS011;10397;50.948;11.092;2022-08-05T08:19:07;8.63;;;1.90;;
20476;SDS011;10397;50.948;11.092;2022-08-05T08:21:39;3.65;;;2.00;;
20476;SDS011;10397;50.948;11.092;2022-08-05T08:24:10;2.20;;;1.67;;
20476;SDS011;10397;50.948;11.092;2022-08-05T08:26:42;2.27;;;1.35;;
20476;SDS011;10397;50.948;11.092;2022-08-05T08:29:13;6.00;;;2.30;;
20476;SDS011;10397;50.948;11.092;2022-08-05T08:31:44;2.80;;;1.80;;
20476;SDS011;10397;50.948;11.092;2022-08-05T08:34:21;3.92;;;1.52;;
20476;SDS011;10397;50.948;11.092;2022-08-05T08:36:47;4.47;;;1.92;;
20476;SDS011;10397;50.948;11.092;2022-08-05T08:39:18;3.83;;;1.45;;
20476;SDS011;10397;50.948;11.092;2022-08-05T08:41:49;5.00;;;1.43;;
20476;SDS011;10397;50.948;11.092;2022-08-05T08:44:20;4.60;;;1.82;;
20476;SDS011;10397;50.948;11.092;2022-08-05T08:46:51;5.47;;;2.00;;
20476;SDS011;10397;50.948;11.092;2022-08-05T08:49:23;2.65;;;1.65;;
20476;SDS011;10397;50.948;11.092;2022-08-05T08:51:57;5.28;;;1.75;;
20476;SDS011;10397;50.948;11.092;2022-08-05T08:54:25;2.70;;;2.00;;
20476;SDS011;10397;50.948;11.092;2022-08-05T08:56:57;2.85;;;1.70;;
20476;SDS011;10397;50.948;11.092;2022-08-05T08:59:27;3.10;;;1.50;;
20476;SDS011;10397;50.948;11.092;2022-08-05T09:01:59;2.87;;;1.82;;
20476;SDS011;10397;50.948;11.092;2022-08-05T09:04:29;2.70;;;1.20;;
20476;SDS011;10397;50.948;11.092;2022-08-05T09:07:00;2.80;;;1.98;;
20476;SDS011;10397;50.948;11.092;2022-08-05T09:09:32;2.27;;;1.35;;
20476;SDS011;10397;50.948;11.092;2022-08-05T09:12:03;1.25;;;1.00;;
20476;SDS011;10397;50.948;11.092;2022-08-05T09:14:35;1.90;;;1.20;;
20476;SDS011;10397;50.948;11.092;2022-08-05T09:17:07;4.55;;;1.30;;
20476;SDS011;10397;50.948;11.092;2022-08-05T09:19:36;2.30;;;1.33;;
20476;SDS011;10397;50.948;11.092;2022-08-05T09:22:08;2.20;;;1.35;;
20476;SDS011;10397;50.948;11.092;2022-08-05T09:24:40;1.52;;;1.17;;
20476;SDS011;10397;50.948;11.092;2022-08-05T09:27:20;1.67;;;1.25;;
20476;SDS011;10397;50.948;11.092;2022-08-05T09:29:42;2.75;;;1.40;;
20476;SDS011;10397;50.948;11.092;2022-08-05T09:32:12;2.30;;;1.17;;
20476;SDS011;10397;50.948;11.092;2022-08-05T09:34:47;1.32;;;1.10;;
20476;SDS011;10397;50.948;11.092;2022-08-05T09:37:21;3.83;;;0.90;;
20476;SDS011;10397;50.948;11.092;2022-08-05T09:39:51;2.25;;;1.02;;
20476;SDS011;10397;50.948;11.092;2022-08-05T09:42:22;1.67;;;0.90;;
20476;SDS011;10397;50.948;11.092;2022-08-05T09:44:54;1.15;;;0.85;;
20476;SDS011;10397;50.948;11.092;2022-08-05T09:47:25;2.35;;;0.90;;
20476;SDS011;10397;50.948;11.092;2022-08-05T09:49:56;1.27;;;1.12;;
20476;SDS011;10397;50.948;11.092;2022-08-05T09:52:29;2.30;;;0.90;;
20476;SDS011;10397;50.948;11.092;2022-08-05T09:57:43;3.65;;;1.25;;
20476;SDS011;10397;50.948;11.092;2022-08-05T10:02:47;1.93;;;0.90;;
20476;SDS011;10397;50.948;11.092;2022-08-05T10:05:18;1.70;;;0.98;;
20476;SDS011;10397;50.948;11.092;2022-08-05T10:07:52;1.67;;;0.90;;
20476;SDS011;10397;50.948;11.092;2022-08-05T10:10:22;2.83;;;0.80;;
20476;SDS011;10397;50.948;11.092;2022-08-05T10:12:55;1.63;;;1.30;;
20476;SDS011;10397;50.948;11.092;2022-08-05T10:15:29;2.12;;;1.10;;
20476;SDS011;10397;50.948;11.092;2022-08-05T10:20:45;2.00;;;1.10;;
20476;SDS011;10397;50.948;11.092;2022-08-05T10:23:19;2.80;;;1.13;;
20476;SDS011;10397;50.948;11.092;2022-08-05T10:25:46;1.50;;;1.00;;
20476;SDS011;10397;50.948;11.092;2022-08-05T10:28:17;1.35;;;1.22;;
20476;SDS011;10397;50.948;11.092;2022-08-05T10:30:49;3.67;;;1.45;;
20476;SDS011;10397;50.948;11.092;2022-08-05T10:33:19;1.93;;;1.17;;
20476;SDS011;10397;50.948;11.092;2022-08-05T10:35:50;1.25;;;0.90;;
20476;SDS011;10397;50.948;11.092;2022-08-05T10:38:21;1.30;;;0.97;;
20476;SDS011;10397;50.948;11.092;2022-08-05T10:40:55;2.90;;;1.40;;
20476;SDS011;10397;50.948;11.092;2022-08-05T10:46:19;1.90;;;1.00;;
20476;SDS011;10397;50.948;11.092;2022-08-05T10:48:56;1.37;;;0.72;;
20476;SDS011;10397;50.948;11.092;2022-08-05T10:51:27;1.63;;;0.97;;
20476;SDS011;10397;50.948;11.092;2022-08-05T10:53:59;2.83;;;1.25;;
20476;SDS011;10397;50.948;11.092;2022-08-05T10:56:30;0.80;;;0.78;;
20476;SDS011;10397;50.948;11.092;2022-08-05T10:59:04;1.77;;;0.87;;
20476;SDS011;10397;50.948;11.092;2022-08-05T11:01:38;1.40;;;0.90;;
20476;SDS011;10397;50.948;11.092;2022-08-05T11:04:08;1.17;;;0.80;;
20476;SDS011;10397;50.948;11.092;2022-08-05T11:09:27;3.60;;;0.80;;
20476;SDS011;10397;50.948;11.092;2022-08-05T11:11:58;2.12;;;0.93;;
20476;SDS011;10397;50.948;11.092;2022-08-05T11:14:30;1.32;;;0.90;;
20476;SDS011;10397;50.948;11.092;2022-08-05T11:19:55;1.67;;;0.90;;
20476;SDS011;10397;50.948;11.092;2022-08-05T11:31:16;1.23;;;0.97;;
20476;SDS011;10397;50.948;11.092;2022-08-05T11:33:35;1.20;;;0.80;;
20476;SDS011;10397;50.948;11.092;2022-08-05T11:36:08;4.60;;;1.00;;
20476;SDS011;10397;50.948;11.092;2022-08-05T11:41:16;1.60;;;0.83;;
20476;SDS011;10397;50.948;11.092;2022-08-05T11:43:52;1.70;;;1.03;;
20476;SDS011;10397;50.948;11.092;2022-08-05T11:46:28;1.70;;;1.00;;
20476;SDS011;10397;50.948;11.092;2022-08-05T11:48:59;1.23;;;0.80;;
20476;SDS011;10397;50.948;11.092;2022-08-05T11:51:29;1.07;;;0.90;;
20476;SDS011;10397;50.948;11.092;2022-08-05T11:54:00;1.50;;;0.78;;
20476;SDS011;10397;50.948;11.092;2022-08-05T11:56:44;1.33;;;0.87;;
20476;SDS011;10397;50.948;11.092;2022-08-05T11:59:15;1.87;;;0.90;;
20476;SDS011;10397;50.948;11.092;2022-08-05T12:01:55;2.80;;;0.93;;
20476;SDS011;10397;50.948;11.092;2022-08-05T12:04:21;2.30;;;1.10;;
20476;SDS011;10397;50.948;11.092;2022-08-05T12:06:52;3.85;;;0.90;;
20476;SDS011;10397;50.948;11.092;2022-08-05T12:09:24;1.40;;;1.10;;
20476;SDS011;10397;50.948;11.092;2022-08-05T12:11:54;4.60;;;1.40;;
20476;SDS011;10397;50.948;11.092;2022-08-05T12:14:25;1.50;;;1.00;;
20476;SDS011;10397;50.948;11.092;2022-08-05T12:16:56;2.77;;;1.00;;
20476;SDS011;10397;50.948;11.092;2022-08-05T12:19:28;2.47;;;1.02;;
20476;SDS011;10397;50.948;11.092;2022-08-05T12:22:00;2.30;;;1.30;;
20476;SDS011;10397;50.948;11.092;2022-08-05T12:24:31;1.98;;;1.17;;
20476;SDS011;10397;50.948;11.092;2022-08-05T12:27:02;1.75;;;1.10;;
20476;SDS011;10397;50.948;11.092;2022-08-05T12:29:34;1.67;;;1.10;;
20476;SDS011;10397;50.948;11.092;2022-08-05T12:32:05;2.00;;;1.07;;
20476;SDS011;10397;50.948;11.092;2022-08-05T12:34:36;2.10;;;1.02;;
20476;SDS011;10397;50.948;11.092;2022-08-05T12:37:08;1.50;;;1.20;;
20476;SDS011;10397;50.948;11.092;2022-08-05T12:39:38;2.07;;;1.17;;
20476;SDS011;10397;50.948;11.092;2022-08-05T12:42:10;1.45;;;0.93;;
20476;SDS011;10397;50.948;11.092;2022-08-05T12:44:39;1.43;;;0.80;;
20476;SDS011;10397;50.948;11.092;2022-08-05T12:47:11;2.80;;;1.50;;
20476;SDS011;10397;50.948;11.092;2022-08-05T12:49:44;3.20;;;1.60;;
20476;SDS011;10397;50.948;11.092;2022-08-05T12:52:15;1.77;;;1.07;;
20476;SDS011;10397;50.948;11.092;2022-08-05T12:54:45;1.37;;;0.90;;
20476;SDS011;10397;50.948;11.092;2022-08-05T12:57:18;2.67;;;1.30;;
20476;SDS011;10397;50.948;11.092;2022-08-05T12:59:53;2.20;;;1.35;;
20476;SDS011;10397;50.948;11.092;2022-08-05T13:02:24;1.33;;;1.10;;
20476;SDS011;10397;50.948;11.092;2022-08-05T13:04:54;3.98;;;1.40;;
20476;SDS011;10397;50.948;11.092;2022-08-05T13:07:26;2.15;;;1.30;;
20476;SDS011;10397;50.948;11.092;2022-08-05T13:09:57;4.62;;;1.45;;
20476;SDS011;10397;50.948;11.092;2022-08-05T13:12:29;3.00;;;1.30;;
20476;SDS011;10397;50.948;11.092;2022-08-05T13:15:01;5.60;;;1.52;;
20476;SDS011;10397;50.948;11.092;2022-08-05T13:17:32;3.10;;;1.40;;
20476;SDS011;10397;50.948;11.092;2022-08-05T13:20:05;3.87;;;1.70;;
20476;SDS011;10397;50.948;11.092;2022-08-05T13:22:38;1.63;;;1.20;;
20476;SDS011;10397;50.948;11.092;2022-08-05T13:25:12;4.57;;;1.57;;
20476;SDS011;10397;50.948;11.092;2022-08-05T13:27:42;2.33;;;1.57;;
20476;SDS011;10397;50.948;11.092;2022-08-05T13:30:13;1.70;;;1.42;;
20476;SDS011;10397;50.948;11.092;2022-08-05T13:32:44;1.40;;;1.20;;
20476;SDS011;10397;50.948;11.092;2022-08-05T13:35:17;2.33;;;1.60;;
20476;SDS011;10397;50.948;11.092;2022-08-05T13:37:48;4.45;;;1.50;;
20476;SDS011;10397;50.948;11.092;2022-08-05T13:40:20;2.80;;;1.75;;
20476;SDS011;10397;50.948;11.092;2022-08-05T13:42:51;3.55;;;1.30;;
20476;SDS011;10397;50.948;11.092;2022-08-05T13:45:23;4.35;;;1.32;;
20476;SDS011;10397;50.948;11.092;2022-08-05T13:47:55;2.62;;;1.05;;
20476;SDS011;10397;50.948;11.092;2022-08-05T13:50:27;4.72;;;1.25;;
20476;SDS011;10397;50.948;11.092;2022-08-05T13:52:58;7.17;;;1.10;;
20476;SDS011;10397;50.948;11.092;2022-08-05T13:55:30;4.55;;;1.25;;
20476;SDS011;10397;50.948;11.092;2022-08-05T13:58:02;2.17;;;1.20;;
20476;SDS011;10397;50.948;11.092;2022-08-05T14:00:33;2.22;;;1.12;;
20476;SDS011;10397;50.948;11.092;2022-08-05T14:03:05;2.08;;;1.30;;
20476;SDS011;10397;50.948;11.092;2022-08-05T14:05:37;2.70;;;1.20;;
20476;SDS011;10397;50.948;11.092;2022-08-05T14:08:08;2.22;;;1.40;;
20476;SDS011;10397;50.948;11.092;2022-08-05T14:10:40;2.17;;;1.25;;
20476;SDS011;10397;50.948;11.092;2022-08-05T14:13:11;4.08;;;1.50;;
20476;SDS011;10397;50.948;11.092;2022-08-05T14:15:43;2.30;;;1.52;;
20476;SDS011;10397;50.948;11.092;2022-08-05T14:18:15;2.05;;;1.37;;
20476;SDS011;10397;50.948;11.092;2022-08-05T14:20:46;2.62;;;1.60;;
20476;SDS011;10397;50.948;11.092;2022-08-05T14:23:18;1.95;;;1.15;;
20476;SDS011;10397;50.948;11.092;2022-08-05T14:25:50;2.35;;;1.67;;
20476;SDS011;10397;50.948;11.092;2022-08-05T14:28:21;2.08;;;1.40;;
20476;SDS011;10397;50.948;11.092;2022-08-05T14:30:53;2.12;;;1.30;;
20476;SDS011;10397;50.948;11.092;2022-08-05T14:33:23;2.90;;;1.80;;
20476;SDS011;10397;50.948;11.092;2022-08-05T14:35:54;1.50;;;1.10;;
20476;SDS011;10397;50.948;11.092;2022-08-05T14:38:26;1.57;;;1.47;;
20476;SDS011;10397;50.948;11.092;2022-08-05T14:40:58;1.87;;;1.42;;
20476;SDS011;10397;50.948;11.092;2022-08-05T14:43:29;1.50;;;1.10;;
20476;SDS011;10397;50.948;11.092;2022-08-05T14:46:00;5.05;;;1.52;;
20476;SDS011;10397;50.948;11.092;2022-08-05T14:48:32;3.60;;;1.67;;
20476;SDS011;10397;50.948;11.092;2022-08-05T14:51:04;3.90;;;1.80;;
20476;SDS011;10397;50.948;11.092;2022-08-05T14:53:35;5.15;;;1.40;;
20476;SDS011;10397;50.948;11.092;2022-08-05T14:56:07;3.50;;;1.30;;
20476;SDS011;10397;50.948;11.092;2022-08-05T14:58:39;3.75;;;1.67;;
20476;SDS011;10397;50.948;11.092;2022-08-05T15:01:11;5.20;;;2.12;;
20476;SDS011;10397;50.948;11.092;2022-08-05T15:03:42;4.62;;;2.47;;
20476;SDS011;10397;50.948;11.092;2022-08-05T15:06:14;2.90;;;2.17;;
20476;SDS011;10397;50.948;11.092;2022-08-05T15:08:46;2.85;;;2.65;;
20476;SDS011;10397;50.948;11.092;2022-08-05T15:11:16;3.43;;;2.67;;
20476;SDS011;10397;50.948;11.092;2022-08-05T15:13:48;4.12;;;3.42;;
20476;SDS011;10397;50.948;11.092;2022-08-05T15:16:19;5.20;;;4.60;;
20476;SDS011;10397;50.948;11.092;2022-08-05T15:18:51;5.62;;;5.12;;
20476;SDS011;10397;50.948;11.092;2022-08-05T15:21:22;6.20;;;5.70;;
20476;SDS011;10397;50.948;11.092;2022-08-05T15:23:54;8.20;;;7.40;;
20476;SDS011;10397;50.948;11.092;2022-08-05T15:26:26;8.85;;;7.15;;
20476;SDS011;10397;50.948;11.092;2022-08-05T15:28:58;7.97;;;7.37;;
20476;SDS011;10397;50.948;11.092;2022-08-05T15:31:29;8.68;;;7.37;;
20476;SDS011;10397;50.948;11.092;2022-08-05T15:34:01;7.55;;;6.95;;